sensor_id;sensor_type;location;lat;lon;timestamp;P1;durP1;ratioP1;P2;durP2;ratioP2
25481;SDS011;13395;50.752;4.268;2023-07-08T00:00:16;10.38;;;7.07;;
25481;SDS011;13395;50.752;4.268;2023-07-08T00:05:09;17.45;;;8.02;;
25481;SDS011;13395;50.752;4.268;2023-07-08T00:07:36;13.57;;;7.80;;
25481;SDS011;13395;50.752;4.268;2023-07-08T00:12:42;12.30;;;7.95;;
25481;SDS011;13395;50.752;4.268;2023-07-08T00:15:09;9.60;;;6.90;;
25481;SDS011;13395;50.752;4.268;2023-07-08T00:17:35;10.25;;;7.60;;
25481;SDS011;13395;50.752;4.268;2023-07-08T00:20:04;11.02;;;7.95;;
25481;SDS011;13395;50.752;4.268;2023-07-08T00:22:56;12.13;;;7.25;;
25481;SDS011;13395;50.752;4.268;2023-07-08T00:25:22;11.68;;;7.32;;
25481;SDS011;13395;50.752;4.268;2023-07-08T00:27:48;9.05;;;7.70;;
25481;SDS011;13395;50.752;4.268;2023-07-08T00:30:18;11.07;;;7.55;;
25481;SDS011;13395;50.752;4.268;2023-07-08T00:32:47;9.25;;;6.90;;
25481;SDS011;13395;50.752;4.268;2023-07-08T00:35:18;10.73;;;7.80;;
25481;SDS011;13395;50.752;4.268;2023-07-08T00:38:20;10.30;;;7.38;;
25481;SDS011;13395;50.752;4.268;2023-07-08T00:43:35;10.32;;;7.95;;
25481;SDS011;13395;50.752;4.268;2023-07-08T00:46:53;11.60;;;7.82;;
25481;SDS011;13395;50.752;4.268;2023-07-08T00:51:36;13.07;;;8.10;;
25481;SDS011;13395;50.752;4.268;2023-07-08T00:54:03;10.50;;;6.65;;
25481;SDS011;13395;50.752;4.268;2023-07-08T00:56:31;8.50;;;6.75;;
25481;SDS011;13395;50.752;4.268;2023-07-08T00:59:11;9.13;;;6.50;;
25481;SDS011;13395;50.752;4.268;2023-07-08T01:01:52;8.73;;;7.05;;
25481;SDS011;13395;50.752;4.268;2023-07-08T01:04:20;8.88;;;6.38;;
25481;SDS011;13395;50.752;4.268;2023-07-08T01:06:57;9.60;;;6.88;;
25481;SDS011;13395;50.752;4.268;2023-07-08T01:09:31;9.27;;;6.93;;
25481;SDS011;13395;50.752;4.268;2023-07-08T01:12:01;10.02;;;6.75;;
25481;SDS011;13395;50.752;4.268;2023-07-08T01:14:31;12.32;;;7.20;;
25481;SDS011;13395;50.752;4.268;2023-07-08T01:16:59;10.63;;;7.32;;
25481;SDS011;13395;50.752;4.268;2023-07-08T01:19:25;9.35;;;7.03;;
25481;SDS011;13395;50.752;4.268;2023-07-08T01:21:59;15.18;;;8.45;;
25481;SDS011;13395;50.752;4.268;2023-07-08T01:24:25;10.60;;;7.45;;
25481;SDS011;13395;50.752;4.268;2023-07-08T01:26:51;13.63;;;7.22;;
25481;SDS011;13395;50.752;4.268;2023-07-08T01:29:17;10.38;;;6.57;;
25481;SDS011;13395;50.752;4.268;2023-07-08T01:31:43;10.63;;;7.13;;
25481;SDS011;13395;50.752;4.268;2023-07-08T01:34:14;12.07;;;6.90;;
25481;SDS011;13395;50.752;4.268;2023-07-08T01:36:41;10.00;;;6.85;;
25481;SDS011;13395;50.752;4.268;2023-07-08T01:39:14;11.90;;;6.50;;
25481;SDS011;13395;50.752;4.268;2023-07-08T01:41:44;10.88;;;7.25;;
25481;SDS011;13395;50.752;4.268;2023-07-08T01:46:56;9.95;;;7.00;;
25481;SDS011;13395;50.752;4.268;2023-07-08T01:49:27;7.22;;;6.07;;
25481;SDS011;13395;50.752;4.268;2023-07-08T01:51:54;9.10;;;6.20;;
25481;SDS011;13395;50.752;4.268;2023-07-08T01:54:21;9.98;;;6.63;;
25481;SDS011;13395;50.752;4.268;2023-07-08T01:56:46;7.32;;;6.10;;
25481;SDS011;13395;50.752;4.268;2023-07-08T01:59:16;8.55;;;6.30;;
25481;SDS011;13395;50.752;4.268;2023-07-08T02:01:42;13.13;;;6.40;;
25481;SDS011;13395;50.752;4.268;2023-07-08T02:04:07;10.45;;;6.40;;
25481;SDS011;13395;50.752;4.268;2023-07-08T02:06:33;8.23;;;6.25;;
25481;SDS011;13395;50.752;4.268;2023-07-08T02:08:58;9.35;;;6.85;;
25481;SDS011;13395;50.752;4.268;2023-07-08T02:11:24;8.45;;;5.90;;
25481;SDS011;13395;50.752;4.268;2023-07-08T02:13:50;13.35;;;7.07;;
25481;SDS011;13395;50.752;4.268;2023-07-08T02:16:15;9.65;;;7.10;;
25481;SDS011;13395;50.752;4.268;2023-07-08T02:18:41;11.02;;;6.72;;
25481;SDS011;13395;50.752;4.268;2023-07-08T02:21:08;9.65;;;6.47;;
25481;SDS011;13395;50.752;4.268;2023-07-08T02:23:34;11.02;;;6.07;;
25481;SDS011;13395;50.752;4.268;2023-07-08T02:25:59;8.35;;;6.53;;
25481;SDS011;13395;50.752;4.268;2023-07-08T02:28:25;10.68;;;7.00;;
25481;SDS011;13395;50.752;4.268;2023-07-08T02:30:51;10.88;;;6.25;;
25481;SDS011;13395;50.752;4.268;2023-07-08T02:33:16;9.38;;;6.35;;
25481;SDS011;13395;50.752;4.268;2023-07-08T02:35:42;9.00;;;6.00;;
25481;SDS011;13395;50.752;4.268;2023-07-08T02:38:08;8.88;;;6.90;;
25481;SDS011;13395;50.752;4.268;2023-07-08T02:40:34;9.63;;;7.05;;
25481;SDS011;13395;50.752;4.268;2023-07-08T02:43:00;11.27;;;6.63;;
25481;SDS011;13395;50.752;4.268;2023-07-08T02:45:25;8.80;;;6.97;;
25481;SDS011;13395;50.752;4.268;2023-07-08T02:47:51;9.75;;;6.57;;
25481;SDS011;13395;50.752;4.268;2023-07-08T02:50:16;8.13;;;6.50;;
25481;SDS011;13395;50.752;4.268;2023-07-08T02:52:43;9.30;;;6.22;;
25481;SDS011;13395;50.752;4.268;2023-07-08T02:55:09;10.25;;;6.60;;
25481;SDS011;13395;50.752;4.268;2023-07-08T02:57:35;9.82;;;6.10;;
25481;SDS011;13395;50.752;4.268;2023-07-08T03:00:00;12.40;;;6.90;;
25481;SDS011;13395;50.752;4.268;2023-07-08T03:02:26;10.35;;;6.13;;
25481;SDS011;13395;50.752;4.268;2023-07-08T03:04:52;6.65;;;5.65;;
25481;SDS011;13395;50.752;4.268;2023-07-08T03:07:19;11.25;;;6.00;;
25481;SDS011;13395;50.752;4.268;2023-07-08T03:09:44;10.25;;;5.93;;
25481;SDS011;13395;50.752;4.268;2023-07-08T03:12:11;8.07;;;6.35;;
25481;SDS011;13395;50.752;4.268;2023-07-08T03:14:36;10.10;;;5.68;;
25481;SDS011;13395;50.752;4.268;2023-07-08T03:17:02;9.05;;;5.30;;
25481;SDS011;13395;50.752;4.268;2023-07-08T03:19:29;7.25;;;6.35;;
25481;SDS011;13395;50.752;4.268;2023-07-08T03:21:54;12.38;;;6.55;;
25481;SDS011;13395;50.752;4.268;2023-07-08T03:24:20;10.35;;;5.32;;
25481;SDS011;13395;50.752;4.268;2023-07-08T03:26:46;8.65;;;6.18;;
25481;SDS011;13395;50.752;4.268;2023-07-08T03:29:16;10.55;;;6.38;;
25481;SDS011;13395;50.752;4.268;2023-07-08T03:31:43;9.48;;;6.15;;
25481;SDS011;13395;50.752;4.268;2023-07-08T03:34:10;15.77;;;5.93;;
25481;SDS011;13395;50.752;4.268;2023-07-08T03:36:48;9.25;;;5.45;;
25481;SDS011;13395;50.752;4.268;2023-07-08T03:39:15;9.90;;;5.65;;
25481;SDS011;13395;50.752;4.268;2023-07-08T03:41:45;11.13;;;6.68;;
25481;SDS011;13395;50.752;4.268;2023-07-08T03:44:11;10.15;;;6.35;;
25481;SDS011;13395;50.752;4.268;2023-07-08T03:46:37;7.88;;;6.00;;
25481;SDS011;13395;50.752;4.268;2023-07-08T03:49:04;8.35;;;6.35;;
25481;SDS011;13395;50.752;4.268;2023-07-08T03:51:32;10.23;;;5.80;;
25481;SDS011;13395;50.752;4.268;2023-07-08T03:54:00;7.80;;;5.88;;
25481;SDS011;13395;50.752;4.268;2023-07-08T03:56:29;9.40;;;6.03;;
25481;SDS011;13395;50.752;4.268;2023-07-08T03:58:55;9.82;;;6.32;;
25481;SDS011;13395;50.752;4.268;2023-07-08T04:01:21;7.70;;;5.80;;
25481;SDS011;13395;50.752;4.268;2023-07-08T04:03:50;8.98;;;6.10;;
25481;SDS011;13395;50.752;4.268;2023-07-08T04:06:17;9.80;;;6.10;;
25481;SDS011;13395;50.752;4.268;2023-07-08T04:08:43;11.18;;;6.72;;
25481;SDS011;13395;50.752;4.268;2023-07-08T04:11:13;9.60;;;5.95;;
25481;SDS011;13395;50.752;4.268;2023-07-08T04:13:40;7.60;;;5.63;;
25481;SDS011;13395;50.752;4.268;2023-07-08T04:16:06;8.63;;;5.82;;
25481;SDS011;13395;50.752;4.268;2023-07-08T04:18:33;8.50;;;5.45;;
25481;SDS011;13395;50.752;4.268;2023-07-08T04:20:58;10.07;;;5.90;;
25481;SDS011;13395;50.752;4.268;2023-07-08T04:23:24;14.50;;;5.07;;
25481;SDS011;13395;50.752;4.268;2023-07-08T04:25:51;11.27;;;5.30;;
25481;SDS011;13395;50.752;4.268;2023-07-08T04:28:20;7.68;;;4.80;;
25481;SDS011;13395;50.752;4.268;2023-07-08T04:30:46;9.07;;;5.60;;
25481;SDS011;13395;50.752;4.268;2023-07-08T04:33:12;8.27;;;4.80;;
25481;SDS011;13395;50.752;4.268;2023-07-08T04:35:41;8.13;;;5.32;;
25481;SDS011;13395;50.752;4.268;2023-07-08T04:38:18;9.75;;;5.00;;
25481;SDS011;13395;50.752;4.268;2023-07-08T04:40:46;20.45;;;8.70;;
25481;SDS011;13395;50.752;4.268;2023-07-08T04:43:16;7.15;;;4.28;;
25481;SDS011;13395;50.752;4.268;2023-07-08T04:45:43;7.80;;;5.38;;
25481;SDS011;13395;50.752;4.268;2023-07-08T04:48:12;7.63;;;5.22;;
25481;SDS011;13395;50.752;4.268;2023-07-08T04:50:40;7.55;;;5.35;;
25481;SDS011;13395;50.752;4.268;2023-07-08T04:53:07;8.05;;;5.72;;
25481;SDS011;13395;50.752;4.268;2023-07-08T04:55:33;8.43;;;5.45;;
25481;SDS011;13395;50.752;4.268;2023-07-08T04:58:07;6.05;;;4.68;;
25481;SDS011;13395;50.752;4.268;2023-07-08T05:00:33;8.45;;;5.35;;
25481;SDS011;13395;50.752;4.268;2023-07-08T05:02:59;9.35;;;5.43;;
25481;SDS011;13395;50.752;4.268;2023-07-08T05:05:25;6.75;;;5.03;;
25481;SDS011;13395;50.752;4.268;2023-07-08T05:07:50;6.05;;;4.63;;
25481;SDS011;13395;50.752;4.268;2023-07-08T05:10:16;8.32;;;5.38;;
25481;SDS011;13395;50.752;4.268;2023-07-08T05:12:43;7.78;;;5.05;;
25481;SDS011;13395;50.752;4.268;2023-07-08T05:15:09;9.50;;;5.15;;
25481;SDS011;13395;50.752;4.268;2023-07-08T05:17:36;7.85;;;4.75;;
25481;SDS011;13395;50.752;4.268;2023-07-08T05:20:03;8.85;;;4.85;;
25481;SDS011;13395;50.752;4.268;2023-07-08T05:22:32;6.82;;;4.28;;
25481;SDS011;13395;50.752;4.268;2023-07-08T05:24:58;5.07;;;3.90;;
25481;SDS011;13395;50.752;4.268;2023-07-08T05:27:24;6.80;;;4.72;;
25481;SDS011;13395;50.752;4.268;2023-07-08T05:29:50;6.40;;;4.03;;
25481;SDS011;13395;50.752;4.268;2023-07-08T05:32:16;6.78;;;4.10;;
25481;SDS011;13395;50.752;4.268;2023-07-08T05:34:42;6.43;;;3.80;;
25481;SDS011;13395;50.752;4.268;2023-07-08T05:37:08;6.22;;;4.07;;
25481;SDS011;13395;50.752;4.268;2023-07-08T05:39:44;6.78;;;4.28;;
25481;SDS011;13395;50.752;4.268;2023-07-08T05:42:10;6.75;;;4.47;;
25481;SDS011;13395;50.752;4.268;2023-07-08T05:44:35;9.88;;;4.15;;
25481;SDS011;13395;50.752;4.268;2023-07-08T05:47:01;7.90;;;3.90;;
25481;SDS011;13395;50.752;4.268;2023-07-08T05:49:27;5.65;;;4.28;;
25481;SDS011;13395;50.752;4.268;2023-07-08T05:51:53;7.45;;;4.38;;
25481;SDS011;13395;50.752;4.268;2023-07-08T05:54:18;8.45;;;4.40;;
25481;SDS011;13395;50.752;4.268;2023-07-08T05:56:44;5.43;;;4.30;;
25481;SDS011;13395;50.752;4.268;2023-07-08T05:59:09;5.28;;;3.90;;
25481;SDS011;13395;50.752;4.268;2023-07-08T06:01:36;9.75;;;3.70;;
25481;SDS011;13395;50.752;4.268;2023-07-08T06:04:02;5.72;;;3.83;;
25481;SDS011;13395;50.752;4.268;2023-07-08T06:06:28;6.28;;;3.83;;
25481;SDS011;13395;50.752;4.268;2023-07-08T06:08:54;5.22;;;4.32;;
25481;SDS011;13395;50.752;4.268;2023-07-08T06:11:20;7.97;;;4.15;;
25481;SDS011;13395;50.752;4.268;2023-07-08T06:13:48;5.60;;;4.13;;
25481;SDS011;13395;50.752;4.268;2023-07-08T06:16:13;8.57;;;4.05;;
25481;SDS011;13395;50.752;4.268;2023-07-08T06:18:39;6.80;;;4.00;;
25481;SDS011;13395;50.752;4.268;2023-07-08T06:21:12;7.80;;;4.75;;
25481;SDS011;13395;50.752;4.268;2023-07-08T06:23:37;4.63;;;3.80;;
25481;SDS011;13395;50.752;4.268;2023-07-08T06:26:03;4.95;;;3.45;;
25481;SDS011;13395;50.752;4.268;2023-07-08T06:28:28;5.40;;;3.90;;
25481;SDS011;13395;50.752;4.268;2023-07-08T06:30:54;3.88;;;3.40;;
25481;SDS011;13395;50.752;4.268;2023-07-08T06:33:19;5.82;;;4.07;;
25481;SDS011;13395;50.752;4.268;2023-07-08T06:35:45;10.02;;;4.70;;
25481;SDS011;13395;50.752;4.268;2023-07-08T06:38:11;5.28;;;3.75;;
25481;SDS011;13395;50.752;4.268;2023-07-08T06:40:37;6.10;;;3.90;;
25481;SDS011;13395;50.752;4.268;2023-07-08T06:43:03;4.70;;;3.22;;
25481;SDS011;13395;50.752;4.268;2023-07-08T06:45:28;6.43;;;4.00;;
25481;SDS011;13395;50.752;4.268;2023-07-08T06:47:54;5.55;;;3.92;;
25481;SDS011;13395;50.752;4.268;2023-07-08T06:50:20;5.03;;;4.13;;
25481;SDS011;13395;50.752;4.268;2023-07-08T06:52:45;7.00;;;4.38;;
25481;SDS011;13395;50.752;4.268;2023-07-08T06:55:11;5.80;;;4.47;;
25481;SDS011;13395;50.752;4.268;2023-07-08T06:57:38;6.50;;;4.20;;
25481;SDS011;13395;50.752;4.268;2023-07-08T07:00:04;6.32;;;4.50;;
25481;SDS011;13395;50.752;4.268;2023-07-08T07:02:33;6.40;;;3.90;;
25481;SDS011;13395;50.752;4.268;2023-07-08T07:04:59;6.60;;;4.55;;
25481;SDS011;13395;50.752;4.268;2023-07-08T07:07:25;7.25;;;4.35;;
25481;SDS011;13395;50.752;4.268;2023-07-08T07:09:51;7.25;;;3.95;;
25481;SDS011;13395;50.752;4.268;2023-07-08T07:12:19;5.63;;;4.45;;
25481;SDS011;13395;50.752;4.268;2023-07-08T07:14:45;7.75;;;4.20;;
25481;SDS011;13395;50.752;4.268;2023-07-08T07:17:11;6.30;;;4.50;;
25481;SDS011;13395;50.752;4.268;2023-07-08T07:19:36;8.45;;;4.65;;
25481;SDS011;13395;50.752;4.268;2023-07-08T07:22:02;5.50;;;4.57;;
25481;SDS011;13395;50.752;4.268;2023-07-08T07:24:28;5.25;;;4.65;;
25481;SDS011;13395;50.752;4.268;2023-07-08T07:26:54;8.15;;;4.75;;
25481;SDS011;13395;50.752;4.268;2023-07-08T07:29:21;6.55;;;4.68;;
25481;SDS011;13395;50.752;4.268;2023-07-08T07:31:48;7.82;;;4.55;;
25481;SDS011;13395;50.752;4.268;2023-07-08T07:34:14;8.38;;;5.15;;
25481;SDS011;13395;50.752;4.268;2023-07-08T07:36:40;8.63;;;4.43;;
25481;SDS011;13395;50.752;4.268;2023-07-08T07:39:05;8.20;;;4.80;;
25481;SDS011;13395;50.752;4.268;2023-07-08T07:41:31;6.13;;;4.13;;
25481;SDS011;13395;50.752;4.268;2023-07-08T07:43:56;8.00;;;4.93;;
25481;SDS011;13395;50.752;4.268;2023-07-08T07:46:22;7.40;;;4.65;;
25481;SDS011;13395;50.752;4.268;2023-07-08T07:48:48;7.70;;;4.90;;
25481;SDS011;13395;50.752;4.268;2023-07-08T07:51:13;7.82;;;4.65;;
25481;SDS011;13395;50.752;4.268;2023-07-08T07:53:40;6.85;;;5.45;;
25481;SDS011;13395;50.752;4.268;2023-07-08T07:56:06;10.27;;;5.38;;
25481;SDS011;13395;50.752;4.268;2023-07-08T07:58:32;7.40;;;5.63;;
25481;SDS011;13395;50.752;4.268;2023-07-08T08:00:58;5.63;;;4.82;;
25481;SDS011;13395;50.752;4.268;2023-07-08T08:03:24;8.25;;;6.03;;
25481;SDS011;13395;50.752;4.268;2023-07-08T08:05:50;9.88;;;5.25;;
25481;SDS011;13395;50.752;4.268;2023-07-08T08:08:16;6.57;;;5.70;;
25481;SDS011;13395;50.752;4.268;2023-07-08T08:10:42;8.73;;;5.47;;
25481;SDS011;13395;50.752;4.268;2023-07-08T08:13:08;8.75;;;5.72;;
25481;SDS011;13395;50.752;4.268;2023-07-08T08:15:34;7.20;;;5.60;;
25481;SDS011;13395;50.752;4.268;2023-07-08T08:18:00;10.85;;;5.70;;
25481;SDS011;13395;50.752;4.268;2023-07-08T08:20:26;6.72;;;5.20;;
25481;SDS011;13395;50.752;4.268;2023-07-08T08:22:52;6.03;;;5.22;;
25481;SDS011;13395;50.752;4.268;2023-07-08T08:25:18;6.03;;;5.50;;
25481;SDS011;13395;50.752;4.268;2023-07-08T08:27:45;8.00;;;5.05;;
25481;SDS011;13395;50.752;4.268;2023-07-08T08:30:11;7.97;;;5.47;;
25481;SDS011;13395;50.752;4.268;2023-07-08T08:32:37;6.55;;;5.25;;
25481;SDS011;13395;50.752;4.268;2023-07-08T08:35:04;6.15;;;5.55;;
25481;SDS011;13395;50.752;4.268;2023-07-08T08:37:30;6.35;;;5.70;;
25481;SDS011;13395;50.752;4.268;2023-07-08T08:39:55;6.05;;;5.45;;
25481;SDS011;13395;50.752;4.268;2023-07-08T08:42:28;5.70;;;5.10;;
25481;SDS011;13395;50.752;4.268;2023-07-08T08:45:24;8.30;;;5.80;;
25481;SDS011;13395;50.752;4.268;2023-07-08T08:48:01;7.47;;;5.57;;
25481;SDS011;13395;50.752;4.268;2023-07-08T08:50:39;7.65;;;5.32;;
25481;SDS011;13395;50.752;4.268;2023-07-08T08:53:11;6.55;;;5.22;;
25481;SDS011;13395;50.752;4.268;2023-07-08T08:55:38;5.75;;;5.15;;
25481;SDS011;13395;50.752;4.268;2023-07-08T09:00:45;5.93;;;5.40;;
25481;SDS011;13395;50.752;4.268;2023-07-08T09:03:20;6.35;;;5.05;;
25481;SDS011;13395;50.752;4.268;2023-07-08T09:05:55;5.75;;;5.00;;
25481;SDS011;13395;50.752;4.268;2023-07-08T09:08:28;9.25;;;4.95;;
25481;SDS011;13395;50.752;4.268;2023-07-08T09:11:02;5.85;;;5.05;;
25481;SDS011;13395;50.752;4.268;2023-07-08T09:13:54;6.22;;;5.20;;
25481;SDS011;13395;50.752;4.268;2023-07-08T09:19:15;7.55;;;5.30;;
25481;SDS011;13395;50.752;4.268;2023-07-08T09:22:21;8.07;;;5.47;;
25481;SDS011;13395;50.752;4.268;2023-07-08T09:27:46;9.38;;;5.55;;
25481;SDS011;13395;50.752;4.268;2023-07-08T09:30:13;6.40;;;5.32;;
25481;SDS011;13395;50.752;4.268;2023-07-08T09:32:41;6.72;;;5.38;;
25481;SDS011;13395;50.752;4.268;2023-07-08T09:35:07;6.07;;;5.50;;
25481;SDS011;13395;50.752;4.268;2023-07-08T09:37:35;6.18;;;5.53;;
25481;SDS011;13395;50.752;4.268;2023-07-08T09:40:28;5.80;;;5.22;;
25481;SDS011;13395;50.752;4.268;2023-07-08T09:42:56;6.78;;;5.85;;
25481;SDS011;13395;50.752;4.268;2023-07-08T09:45:28;9.13;;;5.95;;
25481;SDS011;13395;50.752;4.268;2023-07-08T09:47:55;6.63;;;5.25;;
25481;SDS011;13395;50.752;4.268;2023-07-08T09:52:52;9.18;;;5.70;;
25481;SDS011;13395;50.752;4.268;2023-07-08T09:55:20;8.88;;;5.75;;
25481;SDS011;13395;50.752;4.268;2023-07-08T09:57:46;11.45;;;5.70;;
25481;SDS011;13395;50.752;4.268;2023-07-08T10:00:15;8.18;;;5.57;;
25481;SDS011;13395;50.752;4.268;2023-07-08T10:02:43;7.60;;;5.80;;
25481;SDS011;13395;50.752;4.268;2023-07-08T10:05:30;7.78;;;5.82;;
25481;SDS011;13395;50.752;4.268;2023-07-08T12:16:42;4.68;;;4.20;;
25481;SDS011;13395;50.752;4.268;2023-07-08T12:19:09;7.93;;;4.65;;
25481;SDS011;13395;50.752;4.268;2023-07-08T12:21:40;6.50;;;4.00;;
25481;SDS011;13395;50.752;4.268;2023-07-08T12:24:06;6.93;;;4.28;;
25481;SDS011;13395;50.752;4.268;2023-07-08T13:38:48;4.03;;;2.50;;
25481;SDS011;13395;50.752;4.268;2023-07-08T13:41:21;4.88;;;2.80;;
25481;SDS011;13395;50.752;4.268;2023-07-08T13:46:25;3.35;;;2.72;;
25481;SDS011;13395;50.752;4.268;2023-07-08T13:49:07;4.88;;;2.83;;
25481;SDS011;13395;50.752;4.268;2023-07-08T13:51:41;6.35;;;2.72;;
25481;SDS011;13395;50.752;4.268;2023-07-08T13:54:09;6.47;;;3.03;;
25481;SDS011;13395;50.752;4.268;2023-07-08T13:56:39;4.72;;;2.90;;
25481;SDS011;13395;50.752;4.268;2023-07-08T13:59:07;4.47;;;2.85;;
25481;SDS011;13395;50.752;4.268;2023-07-08T14:01:36;11.43;;;2.72;;
25481;SDS011;13395;50.752;4.268;2023-07-08T14:04:04;6.57;;;3.40;;
25481;SDS011;13395;50.752;4.268;2023-07-08T14:06:32;4.30;;;3.25;;
25481;SDS011;13395;50.752;4.268;2023-07-08T14:09:15;7.63;;;3.53;;
25481;SDS011;13395;50.752;4.268;2023-07-08T14:11:42;6.45;;;3.80;;
25481;SDS011;13395;50.752;4.268;2023-07-08T14:14:09;6.53;;;4.00;;
25481;SDS011;13395;50.752;4.268;2023-07-08T14:16:36;9.30;;;4.47;;
25481;SDS011;13395;50.752;4.268;2023-07-08T14:19:10;5.60;;;3.80;;
25481;SDS011;13395;50.752;4.268;2023-07-08T14:21:49;7.43;;;3.88;;
25481;SDS011;13395;50.752;4.268;2023-07-08T14:24:19;8.38;;;4.43;;
25481;SDS011;13395;50.752;4.268;2023-07-08T14:26:44;7.03;;;4.28;;
25481;SDS011;13395;50.752;4.268;2023-07-08T14:29:11;6.80;;;4.35;;
25481;SDS011;13395;50.752;4.268;2023-07-08T14:31:37;8.30;;;4.22;;
25481;SDS011;13395;50.752;4.268;2023-07-08T14:34:05;10.05;;;4.97;;
25481;SDS011;13395;50.752;4.268;2023-07-08T14:36:33;10.57;;;5.43;;
25481;SDS011;13395;50.752;4.268;2023-07-08T14:38:58;11.70;;;4.85;;
25481;SDS011;13395;50.752;4.268;2023-07-08T14:41:25;9.20;;;4.88;;
25481;SDS011;13395;50.752;4.268;2023-07-08T14:43:51;10.30;;;5.55;;
25481;SDS011;13395;50.752;4.268;2023-07-08T14:46:17;11.50;;;4.82;;
25481;SDS011;13395;50.752;4.268;2023-07-08T14:48:42;10.23;;;4.72;;
25481;SDS011;13395;50.752;4.268;2023-07-08T14:51:08;10.40;;;4.85;;
25481;SDS011;13395;50.752;4.268;2023-07-08T14:53:33;5.57;;;4.70;;
25481;SDS011;13395;50.752;4.268;2023-07-08T14:55:59;5.80;;;4.65;;
25481;SDS011;13395;50.752;4.268;2023-07-08T14:58:29;5.32;;;4.47;;
25481;SDS011;13395;50.752;4.268;2023-07-08T15:00:57;7.32;;;4.80;;
25481;SDS011;13395;50.752;4.268;2023-07-08T15:03:25;7.93;;;5.28;;
25481;SDS011;13395;50.752;4.268;2023-07-08T15:05:51;9.00;;;4.60;;
25481;SDS011;13395;50.752;4.268;2023-07-08T15:08:17;9.30;;;5.38;;
25481;SDS011;13395;50.752;4.268;2023-07-08T15:10:44;6.82;;;4.72;;
25481;SDS011;13395;50.752;4.268;2023-07-08T15:13:13;9.05;;;5.20;;
25481;SDS011;13395;50.752;4.268;2023-07-08T15:15:39;7.45;;;5.55;;
25481;SDS011;13395;50.752;4.268;2023-07-08T15:18:12;7.78;;;4.95;;
25481;SDS011;13395;50.752;4.268;2023-07-08T15:20:39;6.53;;;4.20;;
25481;SDS011;13395;50.752;4.268;2023-07-08T15:23:05;5.90;;;4.40;;
25481;SDS011;13395;50.752;4.268;2023-07-08T15:25:31;8.95;;;4.95;;
25481;SDS011;13395;50.752;4.268;2023-07-08T15:27:59;10.02;;;4.63;;
25481;SDS011;13395;50.752;4.268;2023-07-08T15:30:27;7.38;;;4.57;;
25481;SDS011;13395;50.752;4.268;2023-07-08T15:32:54;8.38;;;4.68;;
25481;SDS011;13395;50.752;4.268;2023-07-08T15:35:22;7.95;;;4.55;;
25481;SDS011;13395;50.752;4.268;2023-07-08T15:37:50;5.10;;;4.28;;
25481;SDS011;13395;50.752;4.268;2023-07-08T15:40:17;5.90;;;4.78;;
25481;SDS011;13395;50.752;4.268;2023-07-08T15:42:45;6.90;;;4.55;;
25481;SDS011;13395;50.752;4.268;2023-07-08T15:45:15;8.07;;;4.35;;
25481;SDS011;13395;50.752;4.268;2023-07-08T15:47:52;8.38;;;4.65;;
25481;SDS011;13395;50.752;4.268;2023-07-08T15:50:19;8.70;;;5.00;;
25481;SDS011;13395;50.752;4.268;2023-07-08T15:52:46;6.28;;;4.70;;
25481;SDS011;13395;50.752;4.268;2023-07-08T15:55:13;8.90;;;5.63;;
25481;SDS011;13395;50.752;4.268;2023-07-08T15:57:49;10.82;;;5.15;;
25481;SDS011;13395;50.752;4.268;2023-07-08T16:00:19;7.25;;;3.97;;
25481;SDS011;13395;50.752;4.268;2023-07-08T16:02:50;11.38;;;5.38;;
25481;SDS011;13395;50.752;4.268;2023-07-08T16:05:19;6.82;;;3.80;;
25481;SDS011;13395;50.752;4.268;2023-07-08T16:07:49;5.07;;;3.80;;
25481;SDS011;13395;50.752;4.268;2023-07-08T16:10:16;5.53;;;4.30;;
25481;SDS011;13395;50.752;4.268;2023-07-08T16:12:42;6.28;;;3.70;;
25481;SDS011;13395;50.752;4.268;2023-07-08T16:15:13;6.55;;;4.07;;
25481;SDS011;13395;50.752;4.268;2023-07-08T16:17:40;7.60;;;3.42;;
25481;SDS011;13395;50.752;4.268;2023-07-08T16:20:15;7.03;;;4.35;;
25481;SDS011;13395;50.752;4.268;2023-07-08T16:22:43;7.47;;;3.17;;
25481;SDS011;13395;50.752;4.268;2023-07-08T16:25:13;4.95;;;3.35;;
25481;SDS011;13395;50.752;4.268;2023-07-08T16:27:40;6.30;;;3.33;;
25481;SDS011;13395;50.752;4.268;2023-07-08T16:30:15;6.97;;;3.35;;
25481;SDS011;13395;50.752;4.268;2023-07-08T16:32:46;5.88;;;3.00;;
25481;SDS011;13395;50.752;4.268;2023-07-08T16:35:13;6.07;;;2.60;;
25481;SDS011;13395;50.752;4.268;2023-07-08T16:37:40;5.20;;;2.90;;
25481;SDS011;13395;50.752;4.268;2023-07-08T16:40:06;6.85;;;2.40;;
25481;SDS011;13395;50.752;4.268;2023-07-08T16:42:41;4.22;;;2.83;;
25481;SDS011;13395;50.752;4.268;2023-07-08T16:45:10;4.93;;;2.55;;
25481;SDS011;13395;50.752;4.268;2023-07-08T16:47:36;5.05;;;2.85;;
25481;SDS011;13395;50.752;4.268;2023-07-08T16:50:02;4.82;;;2.95;;
25481;SDS011;13395;50.752;4.268;2023-07-08T16:52:29;8.15;;;2.88;;
25481;SDS011;13395;50.752;4.268;2023-07-08T16:54:56;4.20;;;2.80;;
25481;SDS011;13395;50.752;4.268;2023-07-08T16:57:22;4.50;;;2.90;;
25481;SDS011;13395;50.752;4.268;2023-07-08T16:59:48;4.22;;;2.83;;
25481;SDS011;13395;50.752;4.268;2023-07-08T17:02:14;3.92;;;2.72;;
25481;SDS011;13395;50.752;4.268;2023-07-08T17:04:41;4.00;;;2.80;;
25481;SDS011;13395;50.752;4.268;2023-07-08T17:07:09;9.38;;;3.05;;
25481;SDS011;13395;50.752;4.268;2023-07-08T17:09:35;6.47;;;2.88;;
25481;SDS011;13395;50.752;4.268;2023-07-08T17:12:01;5.75;;;3.10;;
25481;SDS011;13395;50.752;4.268;2023-07-08T17:14:27;5.25;;;2.58;;
25481;SDS011;13395;50.752;4.268;2023-07-08T17:16:53;5.95;;;2.78;;
25481;SDS011;13395;50.752;4.268;2023-07-08T17:19:18;6.72;;;3.40;;
25481;SDS011;13395;50.752;4.268;2023-07-08T17:21:44;4.97;;;2.55;;
25481;SDS011;13395;50.752;4.268;2023-07-08T17:24:12;7.03;;;2.88;;
25481;SDS011;13395;50.752;4.268;2023-07-08T17:26:37;6.53;;;3.10;;
25481;SDS011;13395;50.752;4.268;2023-07-08T17:29:04;8.35;;;2.90;;
25481;SDS011;13395;50.752;4.268;2023-07-08T17:31:29;7.20;;;3.25;;
25481;SDS011;13395;50.752;4.268;2023-07-08T17:36:32;14.85;;;3.17;;
25481;SDS011;13395;50.752;4.268;2023-07-08T17:41:34;5.57;;;2.70;;
25481;SDS011;13395;50.752;4.268;2023-07-08T17:44:00;6.18;;;2.70;;
25481;SDS011;13395;50.752;4.268;2023-07-08T17:46:26;5.60;;;2.97;;
25481;SDS011;13395;50.752;4.268;2023-07-08T17:48:53;7.28;;;3.03;;
25481;SDS011;13395;50.752;4.268;2023-07-08T17:51:20;5.55;;;3.13;;
25481;SDS011;13395;50.752;4.268;2023-07-08T17:59:02;4.57;;;2.78;;
25481;SDS011;13395;50.752;4.268;2023-07-08T18:04:04;6.43;;;3.45;;
25481;SDS011;13395;50.752;4.268;2023-07-08T18:11:42;4.78;;;3.17;;
25481;SDS011;13395;50.752;4.268;2023-07-08T18:14:10;5.05;;;3.35;;
25481;SDS011;13395;50.752;4.268;2023-07-08T18:16:35;7.95;;;3.40;;
25481;SDS011;13395;50.752;4.268;2023-07-08T18:19:01;6.10;;;2.60;;
25481;SDS011;13395;50.752;4.268;2023-07-08T18:21:27;4.13;;;3.10;;
25481;SDS011;13395;50.752;4.268;2023-07-08T18:26:29;5.05;;;2.92;;
25481;SDS011;13395;50.752;4.268;2023-07-08T18:28:58;4.53;;;3.03;;
25481;SDS011;13395;50.752;4.268;2023-07-08T18:39:11;9.45;;;3.40;;
25481;SDS011;13395;50.752;4.268;2023-07-08T18:41:41;6.18;;;2.90;;
25481;SDS011;13395;50.752;4.268;2023-07-08T19:56:39;7.13;;;3.72;;
25481;SDS011;13395;50.752;4.268;2023-07-08T20:17:12;9.27;;;4.50;;
